Time;durP1;ratioP1;P1;durP2;ratioP2;P2;SDS_P1;SDS_P2;PMS_P1;PMS_P2;Temp;Humidity;BMP_temperature;BMP_pressure;BME280_temperature;BME280_humidity;BME280_pressure;Samples;Min_cycle;Max_cycle;Signal;HPM_P1;HPM_P2
2023/07/18 00:00:17;;;;;;;72.38;30.90;;;27.80;99.90;;;;;;5031050;28;20489;-68
2023/07/18 00:02:45;;;;;;;55.55;30.42;;;27.80;99.90;;;;;;5031502;28;20032;-68
2023/07/18 00:05:12;;;;;;;47.90;29.40;;;27.80;99.90;;;;;;5031180;28;20482;-68
2023/07/18 00:07:40;;;;;;;48.25;29.85;;;27.80;99.90;;;;;;5031770;28;20042;-68
2023/07/18 00:10:08;;;;;;;47.97;29.83;;;27.90;99.90;;;;;;5030422;28;20026;-68
2023/07/18 00:12:36;;;;;;;141.02;93.53;;;27.90;99.90;;;;;;5032245;28;20033;-67
2023/07/18 00:15:05;;;;;;;93.63;62.50;;;28.00;99.90;;;;;;5030400;28;20030;-67
2023/07/18 00:17:33;;;;;;;137.43;100.70;;;27.90;99.90;;;;;;5035949;28;20475;-68
2023/07/18 00:20:04;;;;;;;96.57;71.50;;;27.90;99.90;;;;;;5020291;28;20421;-66
2023/07/18 00:22:31;;;;;;;44.92;33.25;;;27.90;99.90;;;;;;5010157;28;20053;-67
2023/07/18 00:24:58;;;;;;;72.32;52.03;;;28.00;99.90;;;;;;5010427;28;20422;-69
2023/07/18 00:27:24;;;;;;;43.38;30.88;;;28.10;99.90;;;;;;5010663;28;20038;-71
2023/07/18 00:29:51;;;;;;;46.65;31.00;;;28.10;99.90;;;;;;5010598;28;20022;-70
2023/07/18 00:32:17;;;;;;;47.28;31.95;;;28.20;99.90;;;;;;5010399;28;20030;-69
2023/07/18 00:34:44;;;;;;;44.33;31.35;;;28.20;99.90;;;;;;5010392;28;20030;-70
2023/07/18 00:37:11;;;;;;;42.75;32.08;;;28.30;99.90;;;;;;5010181;28;20018;-66
2023/07/18 00:39:38;;;;;;;43.22;29.73;;;28.30;99.90;;;;;;5010161;28;20079;-68
2023/07/18 00:42:05;;;;;;;43.83;29.33;;;28.40;99.90;;;;;;5010096;28;20027;-67
2023/07/18 00:44:32;;;;;;;48.63;34.83;;;28.40;99.90;;;;;;5009967;28;20034;-66
2023/07/18 00:46:58;;;;;;;48.53;30.02;;;28.40;99.90;;;;;;5010156;28;20051;-67
2023/07/18 00:49:26;;;;;;;48.92;29.65;;;28.50;99.90;;;;;;5009935;28;20494;-67
2023/07/18 00:51:52;;;;;;;49.80;31.40;;;28.50;99.90;;;;;;5009926;28;20037;-67
2023/07/18 00:54:21;;;;;;;41.47;30.13;;;28.60;99.90;;;;;;5009944;28;20029;-68
2023/07/18 00:56:48;;;;;;;41.28;29.60;;;28.60;99.90;;;;;;5009981;28;20487;-66
2023/07/18 00:59:17;;;;;;;46.78;29.90;;;28.60;99.90;;;;;;5039756;28;20383;-67
2023/07/18 01:01:44;;;;;;;45.05;30.42;;;28.70;99.90;;;;;;5041696;28;20040;-69
2023/07/18 01:04:11;;;;;;;45.28;31.58;;;28.70;99.90;;;;;;5041998;27;20036;-69
2023/07/18 01:06:38;;;;;;;44.63;29.77;;;28.70;99.90;;;;;;5043101;28;20025;-65
2023/07/18 01:09:05;;;;;;;45.78;30.30;;;28.80;99.90;;;;;;5044760;28;20027;-67
2023/07/18 01:11:33;;;;;;;43.35;29.88;;;28.90;99.90;;;;;;5044577;28;20021;-67
2023/07/18 01:13:59;;;;;;;45.25;29.85;;;28.80;99.90;;;;;;5044284;28;20061;-65
2023/07/18 01:16:26;;;;;;;40.97;28.92;;;28.90;99.90;;;;;;5042296;27;20022;-67
2023/07/18 01:18:53;;;;;;;39.38;26.40;;;28.90;99.90;;;;;;5043611;28;20036;-68
2023/07/18 01:21:21;;;;;;;40.58;25.98;;;29.00;99.90;;;;;;5043562;28;20067;-68
2023/07/18 01:23:48;;;;;;;39.83;26.33;;;29.00;99.90;;;;;;5041904;28;20091;-67
2023/07/18 01:26:15;;;;;;;36.67;24.30;;;29.20;99.90;;;;;;5043234;28;20013;-67
2023/07/18 01:28:41;;;;;;;39.00;25.33;;;29.20;99.90;;;;;;5043655;28;20028;-68
2023/07/18 01:31:08;;;;;;;29.50;24.02;;;29.30;99.90;;;;;;5041607;28;20017;-68
2023/07/18 01:33:35;;;;;;;38.35;24.08;;;29.30;99.90;;;;;;5043307;28;20348;-69
2023/07/18 01:36:02;;;;;;;35.20;23.98;;;29.30;99.90;;;;;;5043490;28;20448;-69
2023/07/18 01:38:30;;;;;;;46.50;24.98;;;29.30;99.90;;;;;;5038922;28;20467;-68
2023/07/18 01:40:57;;;;;;;34.47;23.23;;;29.30;99.90;;;;;;5042554;28;20017;-67
2023/07/18 01:43:24;;;;;;;34.28;21.88;;;29.50;99.90;;;;;;5043907;28;20383;-67
2023/07/18 01:45:51;;;;;;;36.47;22.90;;;29.50;99.90;;;;;;5039282;28;20025;-67
2023/07/18 01:48:19;;;;;;;36.22;22.15;;;29.60;99.90;;;;;;5052792;28;20021;-68
2023/07/18 01:50:45;;;;;;;35.03;21.75;;;29.70;99.90;;;;;;5052387;28;20025;-65
2023/07/18 01:53:12;;;;;;;37.38;20.98;;;29.70;99.90;;;;;;5052360;28;20029;-67
2023/07/18 01:55:39;;;;;;;36.42;23.38;;;29.70;99.90;;;;;;5020189;28;20030;-66
2023/07/18 01:58:06;;;;;;;33.97;22.33;;;29.80;99.90;;;;;;5012637;28;20018;-69
2023/07/18 02:00:35;;;;;;;31.17;21.42;;;29.80;99.90;;;;;;5012684;28;20387;-69
2023/07/18 02:03:01;;;;;;;38.17;20.42;;;29.80;99.90;;;;;;5012868;28;20037;-68
2023/07/18 02:05:31;;;;;;;31.67;20.83;;;29.90;99.90;;;;;;5012479;28;20481;-68
2023/07/18 02:07:58;;;;;;;28.05;18.77;;;30.00;99.90;;;;;;5012462;28;20030;-68
2023/07/18 02:10:25;;;;;;;33.45;19.95;;;30.00;99.90;;;;;;5012258;28;20022;-70
2023/07/18 02:12:54;;;;;;;33.17;18.95;;;30.00;99.90;;;;;;5011839;28;20654;-69
2023/07/18 02:15:21;;;;;;;25.75;18.70;;;30.10;99.90;;;;;;5013238;28;20030;-69
2023/07/18 02:17:48;;;;;;;27.45;18.98;;;30.10;99.90;;;;;;5032007;28;20379;-68
2023/07/18 02:20:15;;;;;;;30.05;19.25;;;30.20;99.90;;;;;;5031928;28;20528;-70
2023/07/18 02:22:44;;;;;;;33.58;19.48;;;30.20;99.90;;;;;;5026679;28;20054;-67
2023/07/18 02:25:12;;;;;;;32.08;18.00;;;30.20;99.90;;;;;;5011775;28;20118;-67
2023/07/18 02:27:40;;;;;;;36.88;20.05;;;30.20;99.90;;;;;;5011917;28;20149;-68
2023/07/18 02:30:11;;;;;;;32.03;18.83;;;30.20;99.90;;;;;;5011730;28;20034;-68
2023/07/18 02:32:39;;;;;;;32.63;17.40;;;30.30;99.90;;;;;;5011980;28;20029;-68
2023/07/18 02:35:07;;;;;;;26.55;17.10;;;30.30;99.90;;;;;;5011665;28;20312;-68
2023/07/18 02:37:34;;;;;;;29.52;16.88;;;30.30;99.90;;;;;;5011377;28;20094;-68
2023/07/18 02:40:08;;;;;;;28.45;18.27;;;30.30;99.90;;;;;;5011920;28;20042;-68
2023/07/18 02:42:34;;;;;;;26.80;16.23;;;30.40;99.90;;;;;;5011777;28;20058;-69
2023/07/18 02:45:01;;;;;;;27.88;16.02;;;30.40;99.90;;;;;;5011599;28;20022;-68
2023/07/18 02:47:27;;;;;;;25.05;16.65;;;30.40;99.90;;;;;;5011686;28;20053;-70
2023/07/18 02:49:54;;;;;;;38.40;24.77;;;30.40;99.90;;;;;;5011451;28;20030;-69
2023/07/18 02:52:21;;;;;;;28.48;17.45;;;30.40;99.90;;;;;;5022639;28;20387;-69
2023/07/18 02:54:47;;;;;;;24.85;17.30;;;30.40;99.90;;;;;;5026225;28;20026;-67
2023/07/18 02:57:14;;;;;;;39.90;31.95;;;30.40;99.90;;;;;;5031029;28;20025;-68
2023/07/18 02:59:40;;;;;;;25.45;16.63;;;30.40;99.90;;;;;;5031051;28;20029;-67
2023/07/18 03:02:07;;;;;;;20.70;14.40;;;30.40;99.90;;;;;;5031143;28;20480;-66
2023/07/18 03:04:33;;;;;;;26.25;18.00;;;30.40;99.90;;;;;;5030926;28;20036;-66
2023/07/18 03:07:02;;;;;;;31.10;14.52;;;30.50;99.90;;;;;;5031099;28;20053;-67
2023/07/18 03:09:33;;;;;;;28.90;19.92;;;30.60;99.90;;;;;;5031086;28;20030;-68
2023/07/18 03:12:00;;;;;;;24.67;15.95;;;30.60;99.90;;;;;;5030311;28;20422;-68
2023/07/18 03:14:27;;;;;;;26.48;15.85;;;30.70;99.90;;;;;;5030811;28;20154;-68
2023/07/18 03:16:53;;;;;;;24.67;15.88;;;30.70;99.90;;;;;;5030873;28;20500;-68
2023/07/18 03:19:20;;;;;;;22.20;13.93;;;30.80;99.90;;;;;;5030563;28;20030;-67
2023/07/18 03:21:46;;;;;;;22.20;13.98;;;30.90;99.90;;;;;;5029863;28;20050;-66
2023/07/18 03:24:13;;;;;;;24.40;15.30;;;31.00;99.90;;;;;;5030418;28;20487;-67
2023/07/18 03:26:39;;;;;;;25.25;14.60;;;31.10;99.90;;;;;;5030450;28;20506;-67
2023/07/18 03:29:06;;;;;;;24.77;15.23;;;31.10;99.90;;;;;;5030629;28;20032;-67
2023/07/18 03:31:34;;;;;;;20.73;14.30;;;31.10;99.90;;;;;;5030475;28;20483;-67
2023/07/18 03:34:04;;;;;;;27.42;15.82;;;31.10;99.90;;;;;;5030514;28;20026;-67
2023/07/18 03:36:31;;;;;;;22.50;15.35;;;31.10;99.90;;;;;;5030587;28;20030;-66
2023/07/18 03:38:58;;;;;;;23.48;14.88;;;31.00;99.90;;;;;;5030474;28;20030;-67
2023/07/18 03:41:24;;;;;;;23.73;14.15;;;31.00;99.90;;;;;;5030738;28;20055;-66
2023/07/18 03:43:51;;;;;;;21.40;13.68;;;30.90;99.90;;;;;;5030545;28;20475;-66
2023/07/18 03:46:18;;;;;;;21.80;15.43;;;30.90;99.90;;;;;;5030689;28;20049;-67
2023/07/18 03:48:44;;;;;;;27.85;15.30;;;31.00;99.90;;;;;;5030600;28;20029;-66
2023/07/18 03:51:11;;;;;;;22.92;14.45;;;31.00;99.90;;;;;;5030429;28;20028;-67
2023/07/18 03:53:39;;;;;;;25.10;14.60;;;31.10;99.90;;;;;;5030383;28;20030;-67
2023/07/18 03:56:06;;;;;;;26.27;14.45;;;31.20;99.90;;;;;;5030484;28;20026;-66
2023/07/18 03:58:34;;;;;;;24.05;15.05;;;31.20;99.90;;;;;;5030521;28;20056;-67
2023/07/18 04:01:08;;;;;;;25.40;16.20;;;31.30;99.90;;;;;;5030094;28;20025;-65
2023/07/18 04:03:35;;;;;;;22.55;14.85;;;31.30;99.90;;;;;;5030102;28;20036;-71
2023/07/18 04:06:02;;;;;;;25.05;14.55;;;31.30;99.90;;;;;;5030134;28;20029;-66
2023/07/18 04:08:28;;;;;;;22.58;14.23;;;31.30;99.90;;;;;;5030137;28;20033;-65
2023/07/18 04:10:58;;;;;;;20.95;13.57;;;31.20;99.90;;;;;;5029857;28;20498;-66
2023/07/18 04:13:25;;;;;;;30.15;15.90;;;31.30;99.90;;;;;;5040391;28;20048;-66
2023/07/18 04:15:54;;;;;;;25.67;13.02;;;31.30;99.90;;;;;;5036292;28;20440;-67
2023/07/18 04:18:21;;;;;;;22.83;14.00;;;31.40;99.90;;;;;;5038966;28;20024;-67
2023/07/18 04:20:49;;;;;;;22.20;13.48;;;31.40;99.90;;;;;;5030552;28;20361;-65
2023/07/18 04:23:16;;;;;;;19.23;14.18;;;31.40;99.90;;;;;;5037659;28;20057;-64
2023/07/18 04:26:03;;;;;;;21.38;15.13;;;31.40;99.90;;;;;;5039998;28;20104;-65
2023/07/18 04:28:32;;;;;;;22.67;14.57;;;31.40;99.90;;;;;;5033786;28;20086;-65
2023/07/18 04:30:59;;;;;;;20.58;13.25;;;31.40;99.90;;;;;;5029827;28;20030;-66
2023/07/18 04:33:26;;;;;;;25.60;14.43;;;31.40;99.90;;;;;;5030620;28;20467;-66
2023/07/18 04:35:52;;;;;;;23.98;16.70;;;31.50;99.90;;;;;;5033427;28;20028;-66
2023/07/18 04:38:19;;;;;;;23.60;15.63;;;31.50;99.90;;;;;;5033514;28;20094;-66
2023/07/18 04:40:46;;;;;;;30.85;21.40;;;31.60;99.90;;;;;;5033328;28;20520;-66
2023/07/18 04:43:12;;;;;;;29.38;18.73;;;31.70;99.90;;;;;;5033351;28;20061;-67
2023/07/18 04:45:44;;;;;;;31.88;22.10;;;31.90;99.90;;;;;;5033337;28;20021;-65
2023/07/18 04:48:12;;;;;;;27.35;15.25;;;31.90;99.90;;;;;;5033520;28;20034;-66
2023/07/18 04:50:40;;;;;;;22.45;15.20;;;31.90;99.90;;;;;;5033557;28;20040;-65
2023/07/18 04:53:06;;;;;;;27.50;17.35;;;31.90;99.90;;;;;;5032980;28;20108;-66
2023/07/18 04:55:34;;;;;;;30.95;17.27;;;32.00;99.90;;;;;;5033170;28;20024;-66
2023/07/18 04:58:03;;;;;;;20.30;14.25;;;32.00;99.90;;;;;;5033111;28;20092;-65
2023/07/18 05:00:30;;;;;;;23.33;12.23;;;32.00;99.90;;;;;;5032913;28;20030;-65
2023/07/18 05:02:58;;;;;;;21.90;15.43;;;31.90;99.90;;;;;;5033061;28;20361;-65
2023/07/18 05:05:28;;;;;;;24.30;13.30;;;32.00;99.90;;;;;;5032973;28;20118;-65
2023/07/18 05:07:56;;;;;;;17.50;11.75;;;32.00;99.90;;;;;;5032841;28;20048;-67
2023/07/18 05:10:23;;;;;;;23.38;13.27;;;32.00;99.90;;;;;;5032982;28;20494;-67
2023/07/18 05:12:54;;;;;;;29.17;16.27;;;32.00;99.90;;;;;;5032703;28;20081;-66
2023/07/18 05:15:21;;;;;;;25.48;15.80;;;32.00;99.90;;;;;;5032998;28;20109;-65
2023/07/18 05:17:47;;;;;;;23.85;14.02;;;32.00;99.90;;;;;;5032768;28;20021;-66
2023/07/18 05:20:14;;;;;;;20.13;12.77;;;31.90;99.90;;;;;;5032835;28;20154;-64
2023/07/18 05:22:44;;;;;;;26.60;16.17;;;31.90;99.90;;;;;;5032868;28;20360;-67
2023/07/18 05:25:14;;;;;;;35.85;18.67;;;31.90;99.90;;;;;;5032730;28;20024;-66
2023/07/18 05:27:42;;;;;;;22.77;14.73;;;31.90;99.90;;;;;;5032524;28;20056;-65
2023/07/18 05:30:19;;;;;;;18.52;11.93;;;31.80;99.90;;;;;;5032643;28;20494;-65
2023/07/18 05:32:50;;;;;;;24.73;12.80;;;31.90;99.90;;;;;;5032569;28;20491;-65
2023/07/18 05:35:17;;;;;;;19.27;12.00;;;32.00;99.90;;;;;;5032348;28;20501;-66
2023/07/18 05:37:44;;;;;;;16.67;11.48;;;32.00;99.90;;;;;;5032583;28;20078;-65
2023/07/18 05:40:12;;;;;;;15.63;11.40;;;32.00;99.90;;;;;;5032548;28;20086;-65
2023/07/18 05:42:40;;;;;;;20.20;11.52;;;32.00;99.90;;;;;;5032367;28;20040;-66
2023/07/18 05:45:08;;;;;;;20.92;12.30;;;32.00;99.90;;;;;;5031844;28;20030;-65
2023/07/18 05:47:35;;;;;;;14.70;10.90;;;32.20;99.90;;;;;;5032450;28;20109;-65
2023/07/18 05:50:02;;;;;;;14.95;9.57;;;32.20;99.90;;;;;;5032420;28;20025;-65
2023/07/18 05:52:29;;;;;;;14.82;10.45;;;32.20;99.90;;;;;;5032387;28;20022;-64
2023/07/18 05:54:56;;;;;;;15.13;10.60;;;32.30;99.90;;;;;;5032291;28;20506;-65
2023/07/18 05:57:23;;;;;;;18.05;11.65;;;32.40;99.90;;;;;;5032076;28;20467;-66
2023/07/18 05:59:49;;;;;;;15.65;9.98;;;32.40;99.90;;;;;;5032207;28;20048;-66
2023/07/18 06:02:17;;;;;;;17.67;10.40;;;32.50;99.90;;;;;;5032208;28;20045;-68
2023/07/18 06:04:44;;;;;;;12.52;9.52;;;32.60;99.90;;;;;;5031986;28;20077;-65
2023/07/18 06:07:11;;;;;;;17.35;11.10;;;32.70;99.90;;;;;;5032398;28;20037;-65
2023/07/18 06:09:38;;;;;;;15.40;9.65;;;32.80;99.90;;;;;;5032149;28;20053;-65
2023/07/18 06:12:06;;;;;;;17.33;10.50;;;32.80;99.90;;;;;;5031726;28;21568;-66
2023/07/18 06:14:33;;;;;;;21.70;10.50;;;32.70;99.90;;;;;;5031983;28;20411;-65
2023/07/18 06:17:00;;;;;;;20.45;13.25;;;32.70;99.90;;;;;;5031959;28;20025;-65
2023/07/18 06:19:27;;;;;;;21.60;10.60;;;32.60;99.90;;;;;;5031886;28;20022;-65
2023/07/18 06:21:53;;;;;;;21.02;11.07;;;32.50;99.90;;;;;;5031675;28;20045;-65
2023/07/18 06:24:20;;;;;;;17.58;10.48;;;32.50;99.90;;;;;;5031767;28;20364;-65
2023/07/18 06:26:49;;;;;;;19.50;9.52;;;32.70;99.90;;;;;;5031601;28;20102;-64
2023/07/18 06:29:18;;;;;;;19.50;9.40;;;32.90;99.90;;;;;;5031983;28;20033;-65
2023/07/18 06:31:47;;;;;;;13.75;8.43;;;32.90;99.90;;;;;;5031652;28;20082;-65
2023/07/18 06:34:17;;;;;;;21.60;9.23;;;32.90;99.90;;;;;;5030216;28;20028;-65
2023/07/18 06:36:45;;;;;;;12.82;8.80;;;33.00;99.90;;;;;;5031663;28;20109;-65
2023/07/18 06:39:13;;;;;;;16.27;9.82;;;33.00;99.90;;;;;;5022079;28;20033;-65
2023/07/18 06:41:40;;;;;;;19.30;9.15;;;33.10;99.90;;;;;;5012093;28;20038;-68
2023/07/18 06:44:07;;;;;;;17.25;9.65;;;33.10;99.90;;;;;;5011644;28;20388;-66
2023/07/18 06:46:34;;;;;;;16.60;9.88;;;33.10;99.90;;;;;;5011559;28;20543;-65
2023/07/18 06:49:00;;;;;;;19.25;9.38;;;33.00;99.90;;;;;;5011597;28;20069;-66
2023/07/18 06:51:27;;;;;;;19.10;8.77;;;33.00;99.90;;;;;;5011566;28;20030;-66
2023/07/18 06:53:54;;;;;;;16.85;7.35;;;32.90;99.90;;;;;;5011642;28;20050;-66
2023/07/18 06:56:20;;;;;;;17.92;7.63;;;32.90;99.90;;;;;;5011013;28;20025;-65
2023/07/18 06:58:47;;;;;;;15.90;8.63;;;32.80;99.90;;;;;;5038814;28;20383;-65
2023/07/18 07:01:13;;;;;;;15.63;9.07;;;32.90;99.90;;;;;;5032257;28;20018;-65
2023/07/18 07:03:40;;;;;;;25.67;13.23;;;33.00;99.90;;;;;;5040881;28;20009;-65
2023/07/18 07:06:13;;;;;;;11.90;8.45;;;33.00;99.90;;;;;;5040055;28;20018;-66
2023/07/18 07:08:40;;;;;;;20.95;7.68;;;32.90;99.90;;;;;;5039468;28;20026;-66
2023/07/18 07:11:08;;;;;;;28.13;20.15;;;32.90;99.90;;;;;;5041270;28;20017;-66
2023/07/18 07:13:36;;;;;;;44.08;30.20;;;32.80;99.90;;;;;;5040729;28;20029;-66
2023/07/18 07:16:03;;;;;;;51.05;33.50;;;32.90;99.90;;;;;;5038702;28;20017;-65
2023/07/18 07:18:30;;;;;;;27.83;17.52;;;32.90;99.90;;;;;;5040152;28;20033;-66
2023/07/18 07:20:57;;;;;;;31.48;19.15;;;32.90;99.90;;;;;;5039661;28;20096;-66
2023/07/18 07:23:23;;;;;;;17.73;9.63;;;32.90;99.90;;;;;;5041284;28;20049;-65
2023/07/18 07:25:50;;;;;;;37.00;22.55;;;32.90;99.90;;;;;;5041389;28;20040;-65
2023/07/18 07:28:17;;;;;;;21.67;11.35;;;33.00;99.90;;;;;;5041085;28;20030;-66
2023/07/18 07:30:43;;;;;;;16.65;9.43;;;33.00;99.90;;;;;;5039220;28;20057;-65
2023/07/18 07:33:10;;;;;;;95.05;66.70;;;32.90;99.90;;;;;;5034527;28;20116;-66
2023/07/18 07:35:37;;;;;;;43.13;32.33;;;32.90;99.90;;;;;;5038483;28;20532;-66
2023/07/18 07:38:03;;;;;;;91.28;62.72;;;32.80;99.90;;;;;;5038978;28;20017;-66
2023/07/18 07:40:30;;;;;;;74.07;52.65;;;32.80;99.90;;;;;;5040298;28;20442;-67
2023/07/18 07:42:57;;;;;;;34.15;23.67;;;32.90;99.90;;;;;;5040622;28;20383;-67
2023/07/18 07:45:23;;;;;;;29.60;16.88;;;33.00;99.90;;;;;;5039323;28;20033;-66
2023/07/18 07:47:50;;;;;;;32.22;18.13;;;33.10;99.90;;;;;;5040454;28;20017;-67
2023/07/18 07:50:16;;;;;;;20.60;13.30;;;33.10;99.90;;;;;;5040114;28;20053;-66
2023/07/18 07:52:43;;;;;;;26.02;16.88;;;33.00;99.90;;;;;;5038912;28;20044;-67
2023/07/18 07:55:12;;;;;;;14.98;9.60;;;33.00;99.90;;;;;;5036013;28;20049;-66
2023/07/18 07:57:39;;;;;;;20.95;10.85;;;32.90;99.90;;;;;;5043512;28;20031;-67
2023/07/18 08:00:07;;;;;;;24.13;16.17;;;32.90;99.90;;;;;;5047471;28;20024;-67
2023/07/18 08:02:34;;;;;;;16.27;9.43;;;33.00;99.90;;;;;;5028698;28;20026;-67
2023/07/18 08:05:00;;;;;;;15.55;8.82;;;33.10;99.90;;;;;;5037324;28;20025;-66
2023/07/18 08:07:27;;;;;;;14.70;9.30;;;33.20;99.90;;;;;;5047523;28;20086;-66
2023/07/18 08:09:54;;;;;;;16.92;10.32;;;33.30;99.90;;;;;;5048417;28;20100;-66
2023/07/18 08:12:21;;;;;;;13.85;9.48;;;33.30;99.90;;;;;;5048181;28;20382;-67
2023/07/18 08:14:48;;;;;;;16.67;8.40;;;33.40;99.90;;;;;;5046275;28;20021;-65
2023/07/18 08:17:16;;;;;;;12.48;7.47;;;33.50;99.90;;;;;;5031378;28;20079;-65
2023/07/18 08:19:43;;;;;;;15.73;7.75;;;33.50;99.90;;;;;;5036633;28;20026;-67
2023/07/18 08:22:09;;;;;;;12.48;7.47;;;33.60;99.90;;;;;;5037732;28;20049;-66
2023/07/18 08:24:36;;;;;;;20.52;6.85;;;33.60;99.50;;;;;;5038126;28;20034;-65
2023/07/18 08:27:03;;;;;;;15.50;7.20;;;33.50;99.80;;;;;;5046795;28;20435;-66
2023/07/18 08:29:30;;;;;;;13.00;6.80;;;33.40;99.90;;;;;;5046807;28;20045;-65
2023/07/18 08:31:58;;;;;;;13.65;8.27;;;33.30;99.90;;;;;;5029158;28;20026;-65
2023/07/18 08:34:25;;;;;;;12.52;7.28;;;33.30;99.90;;;;;;5031560;28;20070;-66
2023/07/18 08:36:52;;;;;;;17.23;6.57;;;33.30;99.60;;;;;;5031594;28;20025;-64
2023/07/18 08:39:18;;;;;;;12.63;7.30;;;33.30;99.90;;;;;;5031237;28;20471;-64
2023/07/18 08:41:49;;;;;;;12.82;6.82;;;33.20;99.80;;;;;;5031307;28;20090;-65
2023/07/18 08:44:17;;;;;;;11.25;7.30;;;33.20;99.90;;;;;;5046830;28;20021;-65
2023/07/18 08:46:46;;;;;;;15.25;8.05;;;33.20;99.90;;;;;;5034814;28;20021;-65
2023/07/18 08:49:14;;;;;;;14.90;6.93;;;33.20;99.90;;;;;;5044353;28;20028;-65
2023/07/18 08:51:44;;;;;;;17.73;6.72;;;33.20;99.90;;;;;;5046843;28;20025;-65
2023/07/18 08:54:12;;;;;;;20.52;8.50;;;33.20;99.90;;;;;;5046632;28;20149;-65
2023/07/18 08:56:41;;;;;;;14.43;8.18;;;33.30;99.90;;;;;;5029605;28;20032;-65
2023/07/18 08:59:07;;;;;;;15.20;7.93;;;33.30;99.90;;;;;;5031344;28;20022;-69
2023/07/18 09:01:35;;;;;;;13.50;7.28;;;33.30;99.90;;;;;;5031229;28;20375;-67
2023/07/18 09:04:01;;;;;;;12.55;7.95;;;33.30;99.60;;;;;;5032945;28;20030;-68
2023/07/18 09:06:28;;;;;;;15.05;7.97;;;33.30;99.80;;;;;;5033594;28;20095;-69
2023/07/18 09:08:55;;;;;;;13.68;6.97;;;33.30;99.90;;;;;;5031758;28;20524;-66
2023/07/18 09:11:22;;;;;;;17.35;9.23;;;33.20;99.80;;;;;;5031677;28;20025;-67
2023/07/18 09:13:49;;;;;;;20.73;9.57;;;33.20;99.90;;;;;;5038043;28;20428;-67
2023/07/18 09:16:17;;;;;;;17.77;8.77;;;33.20;99.90;;;;;;5037433;28;20066;-67
2023/07/18 09:18:48;;;;;;;18.08;7.32;;;33.20;99.90;;;;;;5038621;28;20028;-67
2023/07/18 09:21:14;;;;;;;14.45;7.85;;;33.20;99.90;;;;;;5043427;28;20092;-67
2023/07/18 09:23:42;;;;;;;20.30;8.80;;;33.10;99.90;;;;;;5042159;28;20096;-65
2023/07/18 09:26:10;;;;;;;20.63;10.82;;;33.10;99.90;;;;;;5042688;28;20463;-65
2023/07/18 09:28:38;;;;;;;14.52;7.43;;;33.00;99.90;;;;;;5038460;28;20060;-65
2023/07/18 09:31:26;;;;;;;21.42;7.50;;;33.00;99.90;;;;;;5041789;28;20033;-67
2023/07/18 09:33:54;;;;;;;15.90;8.32;;;32.90;99.90;;;;;;5009431;28;20422;-65
2023/07/18 09:36:25;;;;;;;13.00;7.30;;;32.80;99.90;;;;;;5028986;28;20025;-65
2023/07/18 09:38:52;;;;;;;92.00;60.25;;;32.80;99.90;;;;;;5023998;28;20018;-66
2023/07/18 09:41:20;;;;;;;39.85;22.40;;;32.90;99.90;;;;;;5040599;28;20033;-66
2023/07/18 09:43:47;;;;;;;76.10;50.72;;;32.80;99.90;;;;;;5041626;28;20017;-65
2023/07/18 09:46:15;;;;;;;124.30;81.22;;;32.80;99.90;;;;;;5042144;28;20055;-68
2023/07/18 09:48:44;;;;;;;640.65;387.35;;;32.80;99.90;;;;;;5018706;28;20108;-67
2023/07/18 09:51:14;;;;;;;1168.22;677.13;;;32.70;99.90;;;;;;5016051;28;20481;-66
2023/07/18 09:53:46;;;;;;;884.33;621.33;;;32.70;99.90;;;;;;5012236;28;20418;-66
2023/07/18 09:56:15;;;;;;;885.40;527.93;;;32.70;99.90;;;;;;5012394;28;20452;-67
2023/07/18 09:58:44;;;;;;;1225.00;790.35;;;32.70;99.90;;;;;;5012059;28;20022;-65
2023/07/18 10:01:13;;;;;;;680.65;447.30;;;32.70;99.90;;;;;;5012167;28;20109;-68
2023/07/18 10:03:40;;;;;;;433.67;215.93;;;32.60;99.90;;;;;;5014196;28;20088;-67
2023/07/18 10:06:11;;;;;;;467.42;236.38;;;32.60;99.90;;;;;;5020727;28;20037;-68
2023/07/18 10:08:41;;;;;;;369.40;181.80;;;32.50;99.90;;;;;;5017484;28;20041;-68
2023/07/18 10:11:08;;;;;;;196.73;109.30;;;32.50;99.90;;;;;;5032848;28;20026;-67
2023/07/18 10:13:55;;;;;;;120.10;58.20;;;32.50;99.90;;;;;;5031961;28;20148;-67
2023/07/18 10:16:22;;;;;;;88.18;40.85;;;32.50;99.90;;;;;;5028785;28;20068;-67
2023/07/18 10:18:51;;;;;;;79.63;34.15;;;32.40;99.90;;;;;;5024419;28;20361;-67
2023/07/18 10:21:35;;;;;;;66.90;28.75;;;32.40;99.90;;;;;;5017350;28;20109;-66
2023/07/18 10:24:24;;;;;;;49.90;20.23;;;32.40;99.90;;;;;;5035122;28;20021;-66
2023/07/18 10:26:54;;;;;;;36.17;16.73;;;32.30;99.90;;;;;;5030948;28;20022;-68
2023/07/18 10:29:21;;;;;;;42.17;16.58;;;32.30;99.90;;;;;;5033238;28;20033;-67
2023/07/18 10:31:48;;;;;;;60.47;23.65;;;32.20;99.90;;;;;;5033128;28;20025;-66
2023/07/18 10:34:16;;;;;;;56.35;21.00;;;32.20;99.90;;;;;;5033040;28;20017;-67
2023/07/18 10:37:06;;;;;;;33.33;17.42;;;32.20;99.90;;;;;;5033072;28;20036;-67
2023/07/18 10:39:44;;;;;;;50.53;32.45;;;32.20;99.90;;;;;;5032106;28;20464;-66
2023/07/18 10:42:21;;;;;;;38.30;23.98;;;32.20;99.90;;;;;;5036536;28;20025;-65
2023/07/18 10:44:52;;;;;;;56.72;36.45;;;32.20;99.90;;;;;;5031514;28;20031;-66
2023/07/18 10:47:19;;;;;;;70.05;47.03;;;32.20;99.90;;;;;;5031378;28;20077;-67
2023/07/18 10:49:48;;;;;;;56.97;33.42;;;32.20;99.90;;;;;;5031628;28;20029;-65
2023/07/18 10:52:16;;;;;;;90.78;43.92;;;32.10;99.90;;;;;;5031489;28;20530;-66
2023/07/18 10:54:45;;;;;;;61.95;30.08;;;32.20;99.90;;;;;;5031381;28;20026;-65
2023/07/18 10:57:13;;;;;;;61.65;29.85;;;32.10;99.90;;;;;;5031220;28;20032;-69
2023/07/18 10:59:44;;;;;;;46.95;22.92;;;32.10;99.90;;;;;;5031272;28;20025;-66
2023/07/18 11:02:11;;;;;;;40.78;17.90;;;32.00;99.90;;;;;;5031068;28;20029;-66
2023/07/18 11:04:38;;;;;;;36.45;19.40;;;31.90;99.90;;;;;;5035920;28;20391;-65
2023/07/18 11:07:05;;;;;;;39.28;18.80;;;32.00;99.90;;;;;;5038797;28;20013;-66
2023/07/18 11:09:34;;;;;;;81.28;50.55;;;32.00;99.90;;;;;;5029436;28;20025;-65
2023/07/18 11:12:03;;;;;;;105.93;75.00;;;31.80;99.90;;;;;;5030839;28;20021;-66
2023/07/18 11:14:42;;;;;;;46.85;26.23;;;31.80;99.90;;;;;;5040963;28;20539;-65
2023/07/18 11:17:12;;;;;;;41.38;20.77;;;31.80;99.90;;;;;;5039124;28;20022;-65
2023/07/18 11:19:39;;;;;;;62.13;38.25;;;31.80;99.90;;;;;;5039361;28;20022;-65
2023/07/18 11:22:07;;;;;;;69.10;29.77;;;31.70;99.90;;;;;;5041031;28;20077;-65
2023/07/18 11:24:34;;;;;;;31.10;18.75;;;31.80;99.90;;;;;;5040855;28;20029;-65
2023/07/18 11:27:21;;;;;;;30.13;13.07;;;31.70;99.90;;;;;;5039333;28;20024;-66
2023/07/18 11:30:00;;;;;;;26.75;11.65;;;31.60;99.90;;;;;;5037890;28;20078;-66
2023/07/18 11:32:35;;;;;;;29.65;14.27;;;31.60;99.90;;;;;;5037757;28;20025;-65
2023/07/18 11:35:02;;;;;;;29.98;12.88;;;31.60;99.90;;;;;;5039233;28;20025;-65
2023/07/18 11:37:29;;;;;;;24.60;11.75;;;31.60;99.90;;;;;;5037155;28;20065;-65
2023/07/18 11:39:57;;;;;;;28.38;11.63;;;31.50;99.90;;;;;;5034028;28;20022;-64
2023/07/18 11:42:41;;;;;;;24.08;10.77;;;31.50;99.90;;;;;;5036493;28;20479;-64
2023/07/18 11:45:10;;;;;;;27.20;12.18;;;31.50;99.90;;;;;;5037881;28;20546;-64
2023/07/18 11:47:42;;;;;;;38.63;21.42;;;31.50;99.90;;;;;;5039511;28;20374;-66
2023/07/18 11:50:11;;;;;;;66.07;42.33;;;31.40;99.90;;;;;;5037952;28;20033;-65
2023/07/18 11:52:39;;;;;;;94.25;61.53;;;31.40;99.90;;;;;;5041822;28;20029;-66
2023/07/18 11:55:07;;;;;;;34.45;18.33;;;31.40;99.90;;;;;;5050201;28;20029;-71
2023/07/18 11:57:34;;;;;;;85.65;55.72;;;31.40;99.90;;;;;;5050432;28;20025;-66
2023/07/18 12:00:02;;;;;;;34.70;19.00;;;31.40;99.90;;;;;;5042890;28;20021;-64
2023/07/18 12:02:29;;;;;;;51.42;28.63;;;31.40;99.90;;;;;;5040911;28;20268;-65
2023/07/18 12:04:56;;;;;;;28.02;13.65;;;31.30;99.90;;;;;;5036682;28;20497;-66
2023/07/18 12:07:23;;;;;;;25.50;13.73;;;31.30;99.90;;;;;;5038651;28;20056;-67
2023/07/18 12:09:50;;;;;;;28.13;15.38;;;31.20;99.90;;;;;;5040814;28;20028;-65
2023/07/18 12:12:17;;;;;;;18.85;8.07;;;31.20;99.90;;;;;;5037286;28;20312;-66
2023/07/18 12:14:44;;;;;;;20.67;7.32;;;31.10;99.90;;;;;;5038609;28;20022;-68
2023/07/18 12:17:12;;;;;;;18.58;7.07;;;31.00;99.90;;;;;;5036134;28;20022;-67
2023/07/18 12:19:40;;;;;;;23.90;7.57;;;31.00;99.90;;;;;;5031365;28;20014;-65
2023/07/18 12:22:07;;;;;;;16.40;7.15;;;31.00;99.90;;;;;;5025055;28;20046;-66
2023/07/18 12:24:34;;;;;;;16.88;6.88;;;31.10;99.90;;;;;;5026820;28;20124;-66
2023/07/18 12:27:01;;;;;;;17.67;6.53;;;31.00;99.90;;;;;;5025175;28;20025;-68
2023/07/18 12:29:28;;;;;;;21.52;6.63;;;30.90;99.90;;;;;;5019050;28;20488;-67
2023/07/18 12:31:55;;;;;;;14.43;6.03;;;30.90;99.90;;;;;;5010162;28;20275;-67